Norwegian Gem — C6VG8 — position and weather

sailwx.info

Track history (hours):
 
Tides and Currents Weather Stations Pressure Air Temp Water Temp Dewpoint Dewpoint Depression Visibility Wind Speed Wind Dir Waves Ship Positions

Norwegian Gem (Bahamas)

Last reported at 2020-Jan-25 03:30 UTC. Time now 2020-Jan-25 06:37 UTC.
Position N 37°30' W 122°44'.

Length 294 m; draft 8.6 m.

Type: Ship. MMSI: 309951000.

Date/timePositionNaut miles runAvg speedWind from/ knotsBaromVisibWave heightAir tempDewpointWater temp
2020-Jan-25 03:30N 37°30' W 122°44'24 9.4
2020-Jan-25 00:58N 37°48' W 122°24'0 0.0
2020-Jan-25 00:25N 37°48' W 122°24'0 0.0
2020-Jan-24 22:58N 37°48' W 122°24'0 0.0
2020-Jan-24 20:29N 37°48' W 122°24'0 0.0
2020-Jan-24 19:59N 37°48' W 122°24'0 0.0
2020-Jan-24 19:29N 37°48' W 122°24'0 0.0
2020-Jan-24 15:58N 37°48' W 122°24'0 0.0
2020-Jan-24 15:00N 37°48' W 122°24'3 3.1
2020-Jan-24 14:01N 37°49' W 122°28'2713.7
2020-Jan-24 12:00N 37°23' W 122°40'1918.6
2020-Jan-24 11:00N 37°05' W 122°37'1019.8
2020-Jan-24 10:30N 36°56' W 122°32'1120.1
2020-Jan-24 09:59N 36°46' W 122°27'18719.8
2020-Jan-24 00:30N 34°17' W 120°08'1919.4
2020-Jan-23 23:30N 34°17' W 119°44'8 4.9
2020-Jan-23 21:55N 34°24' W 119°41'0 0.0
2020-Jan-23 16:02N 34°24' W 119°41'0 0.0
2020-Jan-23 13:58N 34°24' W 119°41'10 7.0
2020-Jan-23 12:30N 34°14' W 119°38'11 7.4
2020-Jan-23 11:00N 34°07' W 119°27'7 7.3
2020-Jan-23 10:00N 34°05' W 119°19'31 7.8
2020-Jan-23 05:57N 33°50' W 118°45'3 7.7
2020-Jan-23 05:30N 33°49' W 118°42'21 2.0
2020-Jan-22 18:58N 33°45' W 118°17'0 0.0
2020-Jan-22 15:00N 33°45' W 118°17'10 4.8
2020-Jan-22 13:00N 33°36' W 118°11'2914.6
2020-Jan-22 11:01N 33°10' W 117°57'3718.6
2020-Jan-22 09:00N 32°34' W 117°43'1020.5
2020-Jan-22 08:31N 32°25' W 117°39'  
2020-Jan-15 05:00N 09°54' W 085°54'   050 / 211010.2 5.4 28.0 30.0
Track history (hours):
 
Tides and Currents Weather Stations Pressure Air Temp Water Temp Dewpoint Dewpoint Depression Visibility Wind Speed Wind Dir Waves Ship Positions

Norwegian Gem (Bahamas)

Last reported at 2020-Jan-25 03:30 UTC. Time now 2020-Jan-25 06:37 UTC.
Position N 37°30' W 122°44'.

Length 294 m; draft 8.6 m.

Type: Ship. MMSI: 309951000.

Date/timePositionNaut miles runAvg speedWind from/ knotsBaromVisibWave heightAir tempDewpointWater temp
2020-Jan-25 03:30N 37°30' W 122°44'24 9.4
2020-Jan-25 00:58N 37°48' W 122°24'0 0.0
2020-Jan-25 00:25N 37°48' W 122°24'0 0.0
2020-Jan-24 22:58N 37°48' W 122°24'0 0.0
2020-Jan-24 20:29N 37°48' W 122°24'0 0.0
2020-Jan-24 19:59N 37°48' W 122°24'0 0.0
2020-Jan-24 19:29N 37°48' W 122°24'0 0.0
2020-Jan-24 15:58N 37°48' W 122°24'0 0.0
2020-Jan-24 15:00N 37°48' W 122°24'3 3.1
2020-Jan-24 14:01N 37°49' W 122°28'2713.7
2020-Jan-24 12:00N 37°23' W 122°40'1918.6
2020-Jan-24 11:00N 37°05' W 122°37'1019.8
2020-Jan-24 10:30N 36°56' W 122°32'1120.1
2020-Jan-24 09:59N 36°46' W 122°27'18719.8
2020-Jan-24 00:30N 34°17' W 120°08'1919.4
2020-Jan-23 23:30N 34°17' W 119°44'8 4.9
2020-Jan-23 21:55N 34°24' W 119°41'0 0.0
2020-Jan-23 16:02N 34°24' W 119°41'0 0.0
2020-Jan-23 13:58N 34°24' W 119°41'10 7.0
2020-Jan-23 12:30N 34°14' W 119°38'11 7.4
2020-Jan-23 11:00N 34°07' W 119°27'7 7.3
2020-Jan-23 10:00N 34°05' W 119°19'31 7.8
2020-Jan-23 05:57N 33°50' W 118°45'3 7.7
2020-Jan-23 05:30N 33°49' W 118°42'21 2.0
2020-Jan-22 18:58N 33°45' W 118°17'0 0.0
2020-Jan-22 15:00N 33°45' W 118°17'10 4.8
2020-Jan-22 13:00N 33°36' W 118°11'2914.6
2020-Jan-22 11:01N 33°10' W 117°57'3718.6
2020-Jan-22 09:00N 32°34' W 117°43'1020.5
2020-Jan-22 08:31N 32°25' W 117°39'  
2020-Jan-15 05:00N 09°54' W 085°54'   050 / 211010.2 5.4 28.0 30.0

Dump ship's entire track history